Back to top

Evanston, WY weather

Evanston-Unita County Airport/Burns Field, Evanston, WY: 6/04/2020 04:53
Visibility10 statute milessun with scattered clouds
View 7-Day Forecast
Area Summary
Sky/CloudsScattered at 11000ft
Weather [last 24 hours]None
Pressure30.11 in.Hg (1020 hPa)
Dew Point33.1 °F (0.6 °C)
Relative Humidity 45 %
Temperature54 °F (12.2 °C)red thermometer
Reading TimeMinimum to Maximum Temperature
6-hr ending 6/3@23:5357 °F to 75.9 °F (13.9 °C to 24.4 °C)
6-hr ending 6/3@17:5372 °F to 77 °F (22.2 °C to 25 °C)
6-hr ending 6/3@11:5353.1 °F to 73.9 °F (11.7 °C to 23.3 °C)
6-hr ending 6/3@05:5353.1 °F to 57.9 °F (11.7 °C to 14.4 °C)
24-hr ending 6/4@00:5353.1 °F to 77 °F (11.7 °C to 25 °C)
Wind11.5 MPH (10 KT) green arrow pointing 225 degrees
Wind FromSouthwest (230 Degrees)
Rolling 24-hr Peak Wind38 MPH (33 KT) on 6/3@14:24
Rolling 24-hr Peak Wind FromWest/Southwest (250 Degrees)
Twilight Begins05:17Sunshine Yesterday
Sunrise05:50N/A
Sunset20:56
Twilight Ends21:29
METARKEVW 041053Z AUTO 23010KT 10SM SCT110 12/01 A3011 RMK AO2 SLP102 T01220006
Tags: